sensor_id;sensor_type;location;lat;lon;timestamp;pressure;altitude;pressure_sealevel;temperature;humidity
64336;BME280;50672;53.362;-6.240;2023-03-03T00:00:55;103114.00;;;7.49;62.10
64336;BME280;50672;53.362;-6.240;2023-03-03T00:03:24;103109.28;;;7.52;62.17
64336;BME280;50672;53.362;-6.240;2023-03-03T00:05:51;103106.38;;;7.56;62.23
64336;BME280;50672;53.362;-6.240;2023-03-03T00:08:19;103108.22;;;7.55;62.34
64336;BME280;50672;53.362;-6.240;2023-03-03T00:10:46;103112.94;;;7.51;62.31
64336;BME280;50672;53.362;-6.240;2023-03-03T00:13:16;103109.28;;;7.52;62.18
64336;BME280;50672;53.362;-6.240;2023-03-03T00:15:43;103108.22;;;7.55;62.09
64336;BME280;50672;53.362;-6.240;2023-03-03T00:20:57;103111.03;;;7.53;62.41
64336;BME280;50672;53.362;-6.240;2023-03-03T00:23:30;103116.63;;;7.50;62.23
64336;BME280;50672;53.362;-6.240;2023-03-03T00:26:01;103111.19;;;7.50;62.50
64336;BME280;50672;53.362;-6.240;2023-03-03T00:28:45;103112.94;;;7.51;62.26
64336;BME280;50672;53.362;-6.240;2023-03-03T00:31:22;103112.19;;;7.49;62.47
64336;BME280;50672;53.362;-6.240;2023-03-03T00:33:53;103112.25;;;7.48;62.73
64336;BME280;50672;53.362;-6.240;2023-03-03T00:36:29;103115.06;;;7.46;62.93
64336;BME280;50672;53.362;-6.240;2023-03-03T00:41:52;103118.94;;;7.42;62.81
64336;BME280;50672;53.362;-6.240;2023-03-03T00:47:30;103118.16;;;7.40;62.84
64336;BME280;50672;53.362;-6.240;2023-03-03T00:52:44;103118.28;;;7.39;63.28
64336;BME280;50672;53.362;-6.240;2023-03-03T00:55:11;103109.94;;;7.42;63.07
64336;BME280;50672;53.362;-6.240;2023-03-03T00:57:38;103114.41;;;7.43;62.98
64336;BME280;50672;53.362;-6.240;2023-03-03T01:00:05;103117.13;;;7.43;63.04
64336;BME280;50672;53.362;-6.240;2023-03-03T01:02:32;103117.97;;;7.43;62.85
64336;BME280;50672;53.362;-6.240;2023-03-03T01:04:59;103109.84;;;7.43;62.67
64336;BME280;50672;53.362;-6.240;2023-03-03T01:07:25;103122.22;;;7.47;62.44
64336;BME280;50672;53.362;-6.240;2023-03-03T01:09:52;103106.16;;;7.44;62.53
64336;BME280;50672;53.362;-6.240;2023-03-03T01:12:19;103112.56;;;7.43;62.25
64336;BME280;50672;53.362;-6.240;2023-03-03T01:14:46;103115.25;;;7.43;62.43
64336;BME280;50672;53.362;-6.240;2023-03-03T01:17:14;103118.06;;;7.42;62.50
64336;BME280;50672;53.362;-6.240;2023-03-03T01:19:41;103114.41;;;7.43;62.20
64336;BME280;50672;53.362;-6.240;2023-03-03T01:22:08;103114.31;;;7.44;62.04
64336;BME280;50672;53.362;-6.240;2023-03-03T01:24:34;103115.25;;;7.43;61.82
64336;BME280;50672;53.362;-6.240;2023-03-03T01:27:01;103108.78;;;7.46;61.63
64336;BME280;50672;53.362;-6.240;2023-03-03T01:29:28;103122.22;;;7.47;61.75
64336;BME280;50672;53.362;-6.240;2023-03-03T01:31:54;103120.47;;;7.46;61.49
64336;BME280;50672;53.362;-6.240;2023-03-03T01:34:21;103119.81;;;7.43;61.59
64336;BME280;50672;53.362;-6.240;2023-03-03T01:36:48;103120.09;;;7.38;61.59
64336;BME280;50672;53.362;-6.240;2023-03-03T01:39:15;103120.09;;;7.38;61.70
64336;BME280;50672;53.362;-6.240;2023-03-03T01:41:41;103118.28;;;7.39;61.56
64336;BME280;50672;53.362;-6.240;2023-03-03T01:44:14;103116.53;;;7.38;61.60
64336;BME280;50672;53.362;-6.240;2023-03-03T01:49:55;103113.72;;;7.39;61.51
64336;BME280;50672;53.362;-6.240;2023-03-03T01:52:31;103112.16;;;7.35;61.61
64336;BME280;50672;53.362;-6.240;2023-03-03T01:55:02;103111.31;;;7.34;61.90
64336;BME280;50672;53.362;-6.240;2023-03-03T01:57:36;103116.03;;;7.31;61.78
64336;BME280;50672;53.362;-6.240;2023-03-03T02:00:06;103107.03;;;7.30;61.93
64336;BME280;50672;53.362;-6.240;2023-03-03T02:02:33;103122.34;;;7.31;61.89
64336;BME280;50672;53.362;-6.240;2023-03-03T02:05:00;103114.47;;;7.27;62.04
64336;BME280;50672;53.362;-6.240;2023-03-03T02:07:28;103114.47;;;7.27;61.93
64336;BME280;50672;53.362;-6.240;2023-03-03T02:10:10;103111.88;;;7.25;62.06
64336;BME280;50672;53.362;-6.240;2023-03-03T02:12:41;103111.88;;;7.25;62.08
64336;BME280;50672;53.362;-6.240;2023-03-03T02:15:33;103104.72;;;7.24;62.54
64336;BME280;50672;53.362;-6.240;2023-03-03T02:18:14;103108.19;;;7.26;62.63
64336;BME280;50672;53.362;-6.240;2023-03-03T02:26:11;103114.22;;;7.31;62.83
64336;BME280;50672;53.362;-6.240;2023-03-03T02:28:39;103123.19;;;7.32;63.01
64336;BME280;50672;53.362;-6.240;2023-03-03T02:31:12;103108.69;;;7.33;63.18
64336;BME280;50672;53.362;-6.240;2023-03-03T02:33:46;103116.81;;;7.33;63.26
64336;BME280;50672;53.362;-6.240;2023-03-03T02:36:28;103115.94;;;7.32;63.68
64336;BME280;50672;53.362;-6.240;2023-03-03T02:41:50;103109.66;;;7.32;63.83
64336;BME280;50672;53.362;-6.240;2023-03-03T02:44:23;103122.34;;;7.31;63.88
64336;BME280;50672;53.362;-6.240;2023-03-03T02:46:53;103128.63;;;7.32;63.79
64336;BME280;50672;53.362;-6.240;2023-03-03T02:49:31;103126.69;;;7.34;63.75
64336;BME280;50672;53.362;-6.240;2023-03-03T02:52:00;103113.81;;;7.38;63.54
64336;BME280;50672;53.362;-6.240;2023-03-03T02:54:28;103121.94;;;7.38;63.46
64336;BME280;50672;53.362;-6.240;2023-03-03T02:56:59;103112.75;;;7.40;63.40
64336;BME280;50672;53.362;-6.240;2023-03-03T02:59:26;103121.75;;;7.41;63.35
64336;BME280;50672;53.362;-6.240;2023-03-03T03:01:53;103118.28;;;7.39;63.32
64336;BME280;50672;53.362;-6.240;2023-03-03T03:04:22;103116.41;;;7.39;63.18
64336;BME280;50672;53.362;-6.240;2023-03-03T03:06:50;103110.16;;;7.39;63.01
64336;BME280;50672;53.362;-6.240;2023-03-03T03:09:18;103117.31;;;7.40;63.17
64336;BME280;50672;53.362;-6.240;2023-03-03T03:11:45;103120.88;;;7.40;63.30
64336;BME280;50672;53.362;-6.240;2023-03-03T03:14:13;103117.31;;;7.40;63.19
64336;BME280;50672;53.362;-6.240;2023-03-03T03:16:40;103118.16;;;7.40;63.21
64336;BME280;50672;53.362;-6.240;2023-03-03T03:19:07;103119.13;;;7.39;63.15
64336;BME280;50672;53.362;-6.240;2023-03-03T03:21:34;103116.41;;;7.39;62.91
64336;BME280;50672;53.362;-6.240;2023-03-03T03:24:01;103121.75;;;7.41;62.99
64336;BME280;50672;53.362;-6.240;2023-03-03T03:26:28;103117.31;;;7.40;63.01
64336;BME280;50672;53.362;-6.240;2023-03-03T03:28:54;103113.59;;;7.41;62.87
64336;BME280;50672;53.362;-6.240;2023-03-03T03:31:21;103113.59;;;7.41;62.83
64336;BME280;50672;53.362;-6.240;2023-03-03T03:33:48;103116.22;;;7.42;62.88
64336;BME280;50672;53.362;-6.240;2023-03-03T03:36:15;103117.13;;;7.43;62.85
64336;BME280;50672;53.362;-6.240;2023-03-03T03:38:42;103116.16;;;7.44;62.94
64336;BME280;50672;53.362;-6.240;2023-03-03T03:41:10;103117.97;;;7.43;62.67
64336;BME280;50672;53.362;-6.240;2023-03-03T03:43:37;103121.56;;;7.44;62.79
64336;BME280;50672;53.362;-6.240;2023-03-03T03:46:05;103119.72;;;7.44;62.95
64336;BME280;50672;53.362;-6.240;2023-03-03T03:48:32;103121.75;;;7.41;63.04
64336;BME280;50672;53.362;-6.240;2023-03-03T03:50:59;103128.41;;;7.35;62.80
64336;BME280;50672;53.362;-6.240;2023-03-03T03:53:26;103120.50;;;7.32;62.88
64336;BME280;50672;53.362;-6.240;2023-03-03T03:55:52;103107.91;;;7.31;62.88
64336;BME280;50672;53.362;-6.240;2023-03-03T03:58:19;103107.91;;;7.31;63.00
64336;BME280;50672;53.362;-6.240;2023-03-03T04:00:46;103108.00;;;7.29;63.13
64336;BME280;50672;53.362;-6.240;2023-03-03T04:03:13;103104.63;;;7.26;63.37
64336;BME280;50672;53.362;-6.240;2023-03-03T04:05:41;103104.03;;;7.21;63.56
64336;BME280;50672;53.362;-6.240;2023-03-03T04:08:08;103104.03;;;7.21;63.52
64336;BME280;50672;53.362;-6.240;2023-03-03T04:10:35;103105.78;;;7.22;63.53
64336;BME280;50672;53.362;-6.240;2023-03-03T04:13:02;103110.22;;;7.23;63.69
64336;BME280;50672;53.362;-6.240;2023-03-03T04:15:28;103105.59;;;7.25;63.76
64336;BME280;50672;53.362;-6.240;2023-03-03T04:17:55;103112.75;;;7.26;63.80
64336;BME280;50672;53.362;-6.240;2023-03-03T04:20:22;103113.63;;;7.26;63.94
64336;BME280;50672;53.362;-6.240;2023-03-03T04:22:49;103123.50;;;7.27;63.88
64336;BME280;50672;53.362;-6.240;2023-03-03T04:25:16;103125.22;;;7.28;63.75
64336;BME280;50672;53.362;-6.240;2023-03-03T04:27:43;103122.59;;;7.27;63.97
64336;BME280;50672;53.362;-6.240;2023-03-03T04:30:12;103120.00;;;7.25;63.91
64336;BME280;50672;53.362;-6.240;2023-03-03T04:32:39;103119.13;;;7.25;63.79
64336;BME280;50672;53.362;-6.240;2023-03-03T04:35:06;103115.63;;;7.23;63.92
64336;BME280;50672;53.362;-6.240;2023-03-03T04:37:35;103119.22;;;7.23;64.14
64336;BME280;50672;53.362;-6.240;2023-03-03T04:40:05;103122.91;;;7.22;64.02
64336;BME280;50672;53.362;-6.240;2023-03-03T04:42:33;103122.91;;;7.22;63.94
64336;BME280;50672;53.362;-6.240;2023-03-03T04:45:00;103120.19;;;7.22;64.16
64336;BME280;50672;53.362;-6.240;2023-03-03T04:47:27;103120.28;;;7.21;64.37
64336;BME280;50672;53.362;-6.240;2023-03-03T04:49:54;103123.00;;;7.21;64.36
64336;BME280;50672;53.362;-6.240;2023-03-03T04:52:21;103123.94;;;7.19;64.27
64336;BME280;50672;53.362;-6.240;2023-03-03T04:54:47;103128.50;;;7.19;64.20
64336;BME280;50672;53.362;-6.240;2023-03-03T04:57:14;103123.09;;;7.19;64.33
64336;BME280;50672;53.362;-6.240;2023-03-03T04:59:41;103123.09;;;7.19;64.30
64336;BME280;50672;53.362;-6.240;2023-03-03T05:02:07;103124.91;;;7.18;64.59
64336;BME280;50672;53.362;-6.240;2023-03-03T05:04:34;103125.00;;;7.17;64.59
64336;BME280;50672;53.362;-6.240;2023-03-03T05:07:01;103128.59;;;7.17;64.64
64336;BME280;50672;53.362;-6.240;2023-03-03T05:09:28;103118.72;;;7.16;64.70
64336;BME280;50672;53.362;-6.240;2023-03-03T05:11:55;103129.56;;;7.16;64.82
64336;BME280;50672;53.362;-6.240;2023-03-03T05:14:22;103126.75;;;7.18;64.92
64336;BME280;50672;53.362;-6.240;2023-03-03T05:16:49;103128.59;;;7.17;64.90
64336;BME280;50672;53.362;-6.240;2023-03-03T05:19:15;103127.72;;;7.17;65.07
64336;BME280;50672;53.362;-6.240;2023-03-03T05:21:43;103124.16;;;7.16;65.10
64336;BME280;50672;53.362;-6.240;2023-03-03T05:24:11;103124.25;;;7.15;65.22
64336;BME280;50672;53.362;-6.240;2023-03-03T05:26:39;103127.91;;;7.14;65.31
64336;BME280;50672;53.362;-6.240;2023-03-03T05:29:07;103134.28;;;7.13;65.11
64336;BME280;50672;53.362;-6.240;2023-03-03T05:31:34;103128.09;;;7.11;65.23
64336;BME280;50672;53.362;-6.240;2023-03-03T05:34:01;103128.09;;;7.11;65.38
64336;BME280;50672;53.362;-6.240;2023-03-03T05:36:28;103130.81;;;7.11;65.31
64336;BME280;50672;53.362;-6.240;2023-03-03T05:38:55;103128.19;;;7.09;65.29
64336;BME280;50672;53.362;-6.240;2023-03-03T05:41:22;103125.50;;;7.09;65.44
64336;BME280;50672;53.362;-6.240;2023-03-03T05:43:49;103126.34;;;7.10;65.34
64336;BME280;50672;53.362;-6.240;2023-03-03T05:46:16;103126.44;;;7.08;65.35
64336;BME280;50672;53.362;-6.240;2023-03-03T05:48:43;103121.03;;;7.08;65.72
64336;BME280;50672;53.362;-6.240;2023-03-03T05:51:11;103122.78;;;7.09;65.49
64336;BME280;50672;53.362;-6.240;2023-03-03T05:53:38;103128.19;;;7.09;65.70
64336;BME280;50672;53.362;-6.240;2023-03-03T05:56:05;103121.03;;;7.08;65.75
64336;BME280;50672;53.362;-6.240;2023-03-03T05:58:32;103122.78;;;7.09;65.91
64336;BME280;50672;53.362;-6.240;2023-03-03T06:00:59;103118.22;;;7.10;65.90
64336;BME280;50672;53.362;-6.240;2023-03-03T06:03:25;103118.31;;;7.08;66.03
64336;BME280;50672;53.362;-6.240;2023-03-03T06:05:52;103119.28;;;7.07;66.04
64336;BME280;50672;53.362;-6.240;2023-03-03T06:08:19;103126.56;;;7.07;66.36
64336;BME280;50672;53.362;-6.240;2023-03-03T06:10:46;103117.56;;;7.06;66.31
64336;BME280;50672;53.362;-6.240;2023-03-03T06:13:12;103118.44;;;7.07;66.23
64336;BME280;50672;53.362;-6.240;2023-03-03T06:15:39;103119.28;;;7.07;66.31
64336;BME280;50672;53.362;-6.240;2023-03-03T06:18:06;103113.00;;;7.07;66.40
64336;BME280;50672;53.362;-6.240;2023-03-03T06:20:34;103119.28;;;7.07;66.44
64336;BME280;50672;53.362;-6.240;2023-03-03T06:23:01;103124.69;;;7.07;66.78
64336;BME280;50672;53.362;-6.240;2023-03-03T06:25:28;103120.28;;;7.06;66.56
64336;BME280;50672;53.362;-6.240;2023-03-03T06:27:54;103117.63;;;7.05;66.79
64336;BME280;50672;53.362;-6.240;2023-03-03T06:30:21;103122.97;;;7.06;66.89
64336;BME280;50672;53.362;-6.240;2023-03-03T06:32:48;103123.03;;;7.05;66.84
64336;BME280;50672;53.362;-6.240;2023-03-03T06:35:15;103126.56;;;7.07;66.94
64336;BME280;50672;53.362;-6.240;2023-03-03T06:37:43;103128.31;;;7.08;67.23
64336;BME280;50672;53.362;-6.240;2023-03-03T06:40:11;103131.88;;;7.08;67.19
64336;BME280;50672;53.362;-6.240;2023-03-03T06:42:37;103138.16;;;7.09;67.53
64336;BME280;50672;53.362;-6.240;2023-03-03T06:45:05;103130.91;;;7.09;67.36
64336;BME280;50672;53.362;-6.240;2023-03-03T06:47:31;103141.75;;;7.09;67.65
64336;BME280;50672;53.362;-6.240;2023-03-03T06:49:59;103134.47;;;7.10;67.74
64336;BME280;50672;53.362;-6.240;2023-03-03T06:52:26;103139.78;;;7.11;68.03
64336;BME280;50672;53.362;-6.240;2023-03-03T06:54:57;103139.69;;;7.13;67.93
64336;BME280;50672;53.362;-6.240;2023-03-03T06:57:31;103142.41;;;7.13;68.21
64336;BME280;50672;53.362;-6.240;2023-03-03T07:00:10;103144.25;;;7.12;68.28
64336;BME280;50672;53.362;-6.240;2023-03-03T07:02:40;103147.81;;;7.13;68.48
64336;BME280;50672;53.362;-6.240;2023-03-03T07:05:15;103150.38;;;7.16;68.80
64336;BME280;50672;53.362;-6.240;2023-03-03T07:07:43;103151.63;;;7.10;68.97
64336;BME280;50672;53.362;-6.240;2023-03-03T07:10:27;103153.53;;;7.08;69.15
64336;BME280;50672;53.362;-6.240;2023-03-03T07:12:57;103157.19;;;7.07;69.49
64336;BME280;50672;53.362;-6.240;2023-03-03T07:15:34;103161.66;;;7.08;69.68
64336;BME280;50672;53.362;-6.240;2023-03-03T07:18:01;103158.19;;;7.06;69.70
64336;BME280;50672;53.362;-6.240;2023-03-03T07:20:37;103162.03;;;7.02;70.16
64336;BME280;50672;53.362;-6.240;2023-03-03T07:23:23;103162.63;;;7.07;70.26
64336;BME280;50672;53.362;-6.240;2023-03-03T07:25:51;103165.31;;;7.07;70.47
64336;BME280;50672;53.362;-6.240;2023-03-03T07:28:24;103167.88;;;7.10;70.42
64336;BME280;50672;53.362;-6.240;2023-03-03T07:30:55;103168.03;;;7.07;70.49
64336;BME280;50672;53.362;-6.240;2023-03-03T07:33:34;103174.69;;;7.01;70.67
64336;BME280;50672;53.362;-6.240;2023-03-03T07:36:02;103180.28;;;6.98;70.66
64336;BME280;50672;53.362;-6.240;2023-03-03T07:41:04;103179.69;;;6.93;70.86
64336;BME280;50672;53.362;-6.240;2023-03-03T07:43:47;103177.88;;;6.94;70.85
64336;BME280;50672;53.362;-6.240;2023-03-03T07:49:33;103191.41;;;6.94;71.30
64336;BME280;50672;53.362;-6.240;2023-03-03T07:54:44;103192.88;;;6.99;71.78
64336;BME280;50672;53.362;-6.240;2023-03-03T07:59:51;103200.91;;;7.01;71.88
64336;BME280;50672;53.362;-6.240;2023-03-03T08:02:32;103197.25;;;7.02;72.10
64336;BME280;50672;53.362;-6.240;2023-03-03T08:05:00;103194.34;;;7.05;72.15
64336;BME280;50672;53.362;-6.240;2023-03-03T08:07:30;103190.50;;;7.09;72.20
64336;BME280;50672;53.362;-6.240;2023-03-03T08:09:58;103187.41;;;7.15;72.28
64336;BME280;50672;53.362;-6.240;2023-03-03T08:12:40;103185.66;;;7.14;72.12
64336;BME280;50672;53.362;-6.240;2023-03-03T08:15:16;103199.19;;;7.14;72.25
64336;BME280;50672;53.362;-6.240;2023-03-03T08:17:46;103203.66;;;7.15;72.15
64336;BME280;50672;53.362;-6.240;2023-03-03T08:22:54;103204.59;;;7.14;72.06
64336;BME280;50672;53.362;-6.240;2023-03-03T08:25:21;103203.84;;;7.12;71.97
64336;BME280;50672;53.362;-6.240;2023-03-03T08:27:48;103209.25;;;7.12;72.01
64336;BME280;50672;53.362;-6.240;2023-03-03T08:30:15;103212.72;;;7.14;71.97
64336;BME280;50672;53.362;-6.240;2023-03-03T08:32:42;103212.56;;;7.17;71.85
64336;BME280;50672;53.362;-6.240;2023-03-03T08:35:09;103213.25;;;7.21;71.90
64336;BME280;50672;53.362;-6.240;2023-03-03T08:37:36;103216.66;;;7.25;71.78
64336;BME280;50672;53.362;-6.240;2023-03-03T08:40:02;103214.59;;;7.28;71.98
64336;BME280;50672;53.362;-6.240;2023-03-03T08:42:29;103217.16;;;7.31;71.78
64336;BME280;50672;53.362;-6.240;2023-03-03T08:44:56;103224.22;;;7.34;71.64
64336;BME280;50672;53.362;-6.240;2023-03-03T08:47:23;103224.22;;;7.34;71.81
64336;BME280;50672;53.362;-6.240;2023-03-03T08:49:50;103235.94;;;7.34;71.82
64336;BME280;50672;53.362;-6.240;2023-03-03T08:52:17;103231.28;;;7.36;71.69
64336;BME280;50672;53.362;-6.240;2023-03-03T08:54:44;103229.66;;;7.34;71.62
64336;BME280;50672;53.362;-6.240;2023-03-03T08:57:11;103230.59;;;7.33;71.68
64336;BME280;50672;53.362;-6.240;2023-03-03T08:59:38;103235.06;;;7.34;71.64
64336;BME280;50672;53.362;-6.240;2023-03-03T09:02:06;103235.84;;;7.36;71.37
64336;BME280;50672;53.362;-6.240;2023-03-03T09:04:33;103232.16;;;7.37;71.35
64336;BME280;50672;53.362;-6.240;2023-03-03T09:07:00;103240.19;;;7.39;71.36
64336;BME280;50672;53.362;-6.240;2023-03-03T09:09:27;103237.50;;;7.39;70.96
64336;BME280;50672;53.362;-6.240;2023-03-03T09:11:57;103238.16;;;7.42;70.93
64336;BME280;50672;53.362;-6.240;2023-03-03T09:14:28;103239.91;;;7.43;71.02
64336;BME280;50672;53.362;-6.240;2023-03-03T09:16:55;103241.06;;;7.39;71.10
64336;BME280;50672;53.362;-6.240;2023-03-03T09:21:53;103243.97;;;7.36;71.33
64336;BME280;50672;53.362;-6.240;2023-03-03T09:24:26;103243.97;;;7.36;71.01
64336;BME280;50672;53.362;-6.240;2023-03-03T09:26:53;103249.19;;;7.39;71.18
64336;BME280;50672;53.362;-6.240;2023-03-03T09:29:28;103253.56;;;7.42;71.15
64336;BME280;50672;53.362;-6.240;2023-03-03T09:31:58;103262.53;;;7.42;71.35
64336;BME280;50672;53.362;-6.240;2023-03-03T09:36:59;103267.09;;;7.42;71.65
64336;BME280;50672;53.362;-6.240;2023-03-03T09:39:29;103261.69;;;7.42;71.83
64336;BME280;50672;53.362;-6.240;2023-03-03T09:42:18;103267.19;;;7.40;72.03
64336;BME280;50672;53.362;-6.240;2023-03-03T09:48:09;103274.78;;;7.49;72.12
64336;BME280;50672;53.362;-6.240;2023-03-03T09:56:09;103277.22;;;7.68;71.95
64336;BME280;50672;53.362;-6.240;2023-03-03T09:58:57;103285.25;;;7.70;71.97
64336;BME280;50672;53.362;-6.240;2023-03-03T10:43:15;103298.50;;;8.90;70.08
64336;BME280;50672;53.362;-6.240;2023-03-03T10:46:09;103299.88;;;8.97;69.44
64336;BME280;50672;53.362;-6.240;2023-03-03T10:48:57;103305.72;;;9.04;69.35
64336;BME280;50672;53.362;-6.240;2023-03-03T11:05:50;103316.00;;;8.43;69.08
64336;BME280;50672;53.362;-6.240;2023-03-03T11:08:47;103320.56;;;8.42;69.49
64336;BME280;50672;53.362;-6.240;2023-03-03T11:14:25;103314.97;;;8.45;69.86
64336;BME280;50672;53.362;-6.240;2023-03-03T11:19:39;103323.59;;;8.52;69.98
64336;BME280;50672;53.362;-6.240;2023-03-03T11:25:02;103316.31;;;8.52;70.20
64336;BME280;50672;53.362;-6.240;2023-03-03T11:33:27;103321.72;;;8.81;70.03
64336;BME280;50672;53.362;-6.240;2023-03-03T11:38:58;103324.88;;;9.30;69.74
64336;BME280;50672;53.362;-6.240;2023-03-03T11:44:21;103326.88;;;9.40;69.22
64336;BME280;50672;53.362;-6.240;2023-03-03T11:46:57;103326.09;;;9.38;69.22
64336;BME280;50672;53.362;-6.240;2023-03-03T11:55:51;103336.44;;;9.19;68.52
64336;BME280;50672;53.362;-6.240;2023-03-03T12:01:13;103333.16;;;8.86;68.09
64336;BME280;50672;53.362;-6.240;2023-03-03T12:03:57;103346.28;;;8.65;67.94
64336;BME280;50672;53.362;-6.240;2023-03-03T12:06:59;103336.31;;;8.51;68.05
64336;BME280;50672;53.362;-6.240;2023-03-03T12:13:12;103341.50;;;8.26;68.53
64336;BME280;50672;53.362;-6.240;2023-03-03T12:15:51;103340.53;;;8.12;69.16
64336;BME280;50672;53.362;-6.240;2023-03-03T12:18:31;103346.34;;;8.06;69.25
64336;BME280;50672;53.362;-6.240;2023-03-03T12:26:30;103347.28;;;7.91;70.35
64336;BME280;50672;53.362;-6.240;2023-03-03T12:29:24;103334.88;;;7.86;70.75
64336;BME280;50672;53.362;-6.240;2023-03-03T12:38:48;103340.88;;;7.77;71.51
64336;BME280;50672;53.362;-6.240;2023-03-03T12:41:46;103339.03;;;7.78;71.86
64336;BME280;50672;53.362;-6.240;2023-03-03T12:50:29;103336.13;;;7.81;72.91
64336;BME280;50672;53.362;-6.240;2023-03-03T12:56:07;103334.69;;;7.90;73.07
64336;BME280;50672;53.362;-6.240;2023-03-03T12:58:50;103331.41;;;7.99;73.10
64336;BME280;50672;53.362;-6.240;2023-03-03T13:06:49;103313.03;;;8.62;72.98
64336;BME280;50672;53.362;-6.240;2023-03-03T13:09:51;103311.13;;;8.91;72.82
64336;BME280;50672;53.362;-6.240;2023-03-03T13:12:34;103312.00;;;9.19;72.23
64336;BME280;50672;53.362;-6.240;2023-03-03T13:15:11;103312.25;;;9.29;71.78
64336;BME280;50672;53.362;-6.240;2023-03-03T13:17:48;103310.44;;;9.42;71.54
64336;BME280;50672;53.362;-6.240;2023-03-03T13:20:33;103309.72;;;9.66;70.75
64336;BME280;50672;53.362;-6.240;2023-03-03T13:28:45;103315.00;;;10.83;68.72
64336;BME280;50672;53.362;-6.240;2023-03-03T13:31:21;103306.66;;;11.22;67.61
64336;BME280;50672;53.362;-6.240;2023-03-03T13:33:57;103300.97;;;11.60;66.72
64336;BME280;50672;53.362;-6.240;2023-03-03T13:36:29;103297.69;;;11.91;66.29
64336;BME280;50672;53.362;-6.240;2023-03-03T13:39:02;103303.84;;;11.94;65.25
64336;BME280;50672;53.362;-6.240;2023-03-03T13:46:50;103286.59;;;12.94;62.21
64336;BME280;50672;53.362;-6.240;2023-03-03T13:52:04;103289.09;;;13.30;60.38
64336;BME280;50672;53.362;-6.240;2023-03-03T13:54:51;103284.66;;;13.71;59.56
64336;BME280;50672;53.362;-6.240;2023-03-03T13:57:43;103275.63;;;14.01;58.38
64336;BME280;50672;53.362;-6.240;2023-03-03T14:00:43;103277.97;;;14.47;57.48
64336;BME280;50672;53.362;-6.240;2023-03-03T14:03:22;103273.19;;;14.70;56.46
64336;BME280;50672;53.362;-6.240;2023-03-03T14:06:04;103271.19;;;14.10;55.88
64336;BME280;50672;53.362;-6.240;2023-03-03T14:11:15;103275.59;;;13.17;54.89
64336;BME280;50672;53.362;-6.240;2023-03-03T14:19:48;103273.66;;;13.08;54.32
64336;BME280;50672;53.362;-6.240;2023-03-03T14:22:40;103269.81;;;12.44;54.35
64336;BME280;50672;53.362;-6.240;2023-03-03T14:25:14;103269.28;;;11.82;54.75
64336;BME280;50672;53.362;-6.240;2023-03-03T14:30:45;103282.44;;;10.69;55.49
64336;BME280;50672;53.362;-6.240;2023-03-03T14:38:37;103287.09;;;9.78;57.63
64336;BME280;50672;53.362;-6.240;2023-03-03T14:43:54;103278.69;;;9.43;59.22
64336;BME280;50672;53.362;-6.240;2023-03-03T14:48:57;103283.44;;;9.39;60.46
64336;BME280;50672;53.362;-6.240;2023-03-03T14:53:56;103284.81;;;9.59;61.40
64336;BME280;50672;53.362;-6.240;2023-03-03T14:56:31;103279.94;;;9.77;61.24
64336;BME280;50672;53.362;-6.240;2023-03-03T14:59:19;103275.16;;;10.06;61.58
64336;BME280;50672;53.362;-6.240;2023-03-03T15:01:56;103278.06;;;10.29;61.92
64336;BME280;50672;53.362;-6.240;2023-03-03T15:04:26;103268.63;;;10.59;61.53
64336;BME280;50672;53.362;-6.240;2023-03-03T15:06:54;103268.50;;;10.98;61.48
64336;BME280;50672;53.362;-6.240;2023-03-03T15:09:33;103263.47;;;11.40;61.09
64336;BME280;50672;53.362;-6.240;2023-03-03T15:12:24;103258.72;;;11.77;60.56
64336;BME280;50672;53.362;-6.240;2023-03-03T15:15:06;103258.03;;;11.98;59.91
64336;BME280;50672;53.362;-6.240;2023-03-03T15:17:40;103264.63;;;12.29;59.36
64336;BME280;50672;53.362;-6.240;2023-03-03T15:26:21;103252.31;;;12.46;57.85
64336;BME280;50672;53.362;-6.240;2023-03-03T15:40:01;103240.72;;;12.65;55.26
64336;BME280;50672;53.362;-6.240;2023-03-03T15:45:49;103243.50;;;12.31;54.79
64336;BME280;50672;53.362;-6.240;2023-03-03T15:56:39;103241.31;;;11.44;54.40
64336;BME280;50672;53.362;-6.240;2023-03-03T16:02:20;103246.59;;;10.75;54.97
64336;BME280;50672;53.362;-6.240;2023-03-03T16:04:52;103250.91;;;10.53;55.40
64336;BME280;50672;53.362;-6.240;2023-03-03T16:21:21;103273.56;;;9.38;58.43
64336;BME280;50672;53.362;-6.240;2023-03-03T16:23:56;103273.63;;;9.23;59.01
64336;BME280;50672;53.362;-6.240;2023-03-03T16:29:41;103278.31;;;8.94;60.39
64336;BME280;50672;53.362;-6.240;2023-03-03T16:32:19;103274.59;;;8.82;61.22
64336;BME280;50672;53.362;-6.240;2023-03-03T16:34:58;103289.72;;;8.72;61.67
64336;BME280;50672;53.362;-6.240;2023-03-03T16:37:35;103282.78;;;8.68;62.17
64336;BME280;50672;53.362;-6.240;2023-03-03T16:40:12;103273.94;;;8.64;62.53
64336;BME280;50672;53.362;-6.240;2023-03-03T16:42:40;103278.31;;;8.67;63.25
64336;BME280;50672;53.362;-6.240;2023-03-03T16:53:18;103280.97;;;8.81;64.03
64336;BME280;50672;53.362;-6.240;2023-03-03T17:04:45;103279.22;;;8.80;64.00
64336;BME280;50672;53.362;-6.240;2023-03-03T17:10:32;103271.91;;;8.68;64.37
64336;BME280;50672;53.362;-6.240;2023-03-03T17:20:59;103282.59;;;8.42;64.36
64336;BME280;50672;53.362;-6.240;2023-03-03T17:27:01;103279.88;;;8.28;64.70
64336;BME280;50672;53.362;-6.240;2023-03-03T17:30:16;103292.38;;;8.16;64.57
64336;BME280;50672;53.362;-6.240;2023-03-03T17:41:10;103305.03;;;7.86;65.32
64336;BME280;50672;53.362;-6.240;2023-03-03T17:46:16;103308.34;;;7.77;65.91
64336;BME280;50672;53.362;-6.240;2023-03-03T17:54:46;103316.22;;;7.66;65.97
64336;BME280;50672;53.362;-6.240;2023-03-03T18:07:59;103319.72;;;7.53;67.53
64336;BME280;50672;53.362;-6.240;2023-03-03T18:10:37;103318.91;;;7.51;67.52
64336;BME280;50672;53.362;-6.240;2023-03-03T18:19:11;103329.09;;;7.32;67.91
64336;BME280;50672;53.362;-6.240;2023-03-03T18:40:52;103340.22;;;7.27;68.88
64336;BME280;50672;53.362;-6.240;2023-03-03T18:43:48;103349.13;;;7.29;69.14
64336;BME280;50672;53.362;-6.240;2023-03-03T18:48:52;103349.03;;;7.31;69.39
64336;BME280;50672;53.362;-6.240;2023-03-03T18:51:45;103355.25;;;7.33;69.60